createdAt,value
2023-05-08T00:00:33.330Z,74.0
2023-05-08T00:01:33.279Z,74.0
2023-05-08T00:02:33.333Z,74.0
2023-05-08T00:03:33.526Z,74.0
2023-05-08T00:04:33.287Z,74.0
2023-05-08T00:05:33.281Z,74.0
2023-05-08T00:06:33.405Z,74.0
2023-05-08T00:07:33.295Z,74.0
2023-05-08T00:08:33.281Z,74.0
2023-05-08T00:09:33.293Z,74.0
2023-05-08T00:10:33.282Z,74.0
2023-05-08T00:11:33.295Z,74.0
2023-05-08T00:12:33.250Z,73.9
2023-05-08T00:13:33.258Z,73.9
2023-05-08T00:14:33.331Z,73.9
2023-05-08T00:15:33.294Z,73.9
2023-05-08T00:16:33.355Z,73.9
2023-05-08T00:17:33.454Z,73.9
2023-05-08T00:18:33.274Z,73.9
2023-05-08T00:19:33.303Z,73.9
2023-05-08T00:20:33.288Z,73.9
2023-05-08T00:21:33.418Z,73.9
2023-05-08T00:22:33.245Z,73.9
2023-05-08T00:23:33.255Z,73.9
2023-05-08T00:24:33.251Z,73.9
2023-05-08T00:25:33.285Z,73.9
2023-05-08T00:26:33.273Z,73.9
2023-05-08T00:27:33.658Z,73.9
2023-05-08T00:28:33.550Z,73.9
2023-05-08T00:29:33.231Z,73.9
2023-05-08T00:30:33.283Z,73.9
2023-05-08T00:31:33.353Z,73.9
2023-05-08T00:32:33.310Z,73.9
2023-05-08T00:33:33.427Z,73.9
2023-05-08T00:34:33.310Z,73.9
2023-05-08T00:35:33.219Z,73.8
2023-05-08T00:36:33.213Z,73.8
2023-05-08T00:37:33.234Z,73.8
2023-05-08T00:38:33.241Z,73.8
2023-05-08T00:39:33.261Z,73.8
2023-05-08T00:40:33.236Z,73.9
2023-05-08T00:41:33.227Z,73.9
2023-05-08T00:42:33.225Z,73.8
2023-05-08T00:43:33.238Z,73.8
2023-05-08T00:44:35.168Z,73.8
2023-05-08T00:45:33.228Z,73.8
2023-05-08T00:46:33.267Z,73.8
2023-05-08T00:47:33.302Z,73.8
2023-05-08T00:48:33.206Z,73.9
2023-05-08T00:49:33.292Z,73.9
2023-05-08T00:50:33.209Z,73.9
2023-05-08T00:51:33.253Z,73.9
2023-05-08T00:52:33.390Z,73.8
2023-05-08T00:53:33.228Z,73.8
2023-05-08T00:54:33.237Z,73.8
2023-05-08T00:55:33.193Z,73.9
2023-05-08T00:56:33.209Z,73.9
2023-05-08T00:57:33.347Z,73.9
2023-05-08T00:58:33.262Z,73.8
2023-05-08T00:59:33.218Z,73.8
2023-05-08T01:00:33.350Z,73.8
2023-05-08T01:01:33.202Z,73.9
2023-05-08T01:02:33.338Z,73.9
2023-05-08T01:03:33.350Z,73.9
2023-05-08T01:04:33.237Z,73.8
2023-05-08T01:05:33.143Z,73.9
2023-05-08T01:06:33.175Z,73.9
2023-05-08T01:07:33.159Z,73.9
2023-05-08T01:08:33.419Z,73.9
2023-05-08T01:09:33.197Z,73.9
2023-05-08T01:10:33.151Z,74.0
2023-05-08T01:11:33.357Z,74.0
2023-05-08T01:12:33.180Z,74.0
2023-05-08T01:13:33.325Z,74.0
2023-05-08T01:15:33.158Z,74.0
2023-05-08T01:16:33.499Z,74.0
2023-05-08T01:17:33.294Z,74.0
2023-05-08T01:18:33.213Z,74.1
2023-05-08T01:19:33.192Z,74.2
2023-05-08T01:20:33.166Z,74.1
2023-05-08T01:21:33.198Z,74.1
2023-05-08T01:22:33.327Z,74.1
2023-05-08T01:23:33.177Z,74.2
2023-05-08T01:24:33.295Z,74.2
2023-05-08T01:25:33.149Z,74.1
2023-05-08T01:26:33.138Z,74.1
2023-05-08T01:27:33.134Z,74.1
2023-05-08T01:28:33.150Z,74.1
2023-05-08T01:29:33.159Z,74.2
2023-05-08T01:30:33.156Z,74.1
2023-05-08T01:31:33.147Z,74.1
2023-05-08T01:32:33.180Z,74.1
2023-05-08T01:33:33.374Z,74.1
2023-05-08T01:34:33.158Z,74.1
2023-05-08T01:35:33.186Z,74.0
2023-05-08T01:36:33.127Z,74.0
2023-05-08T01:37:33.137Z,74.1
2023-05-08T01:38:33.146Z,74.0
2023-05-08T01:39:33.097Z,74.0
2023-05-08T01:40:33.144Z,74.0
2023-05-08T01:41:33.125Z,74.0
2023-05-08T01:42:33.126Z,74.0
2023-05-08T01:43:33.113Z,74.0
2023-05-08T01:44:33.260Z,74.0
2023-05-08T01:45:33.098Z,73.9
2023-05-08T01:46:33.120Z,73.9
2023-05-08T01:47:33.151Z,73.9
2023-05-08T01:48:33.111Z,73.9
2023-05-08T01:49:33.135Z,73.9
2023-05-08T01:50:33.073Z,73.9
2023-05-08T01:51:33.109Z,73.8
2023-05-08T01:52:33.083Z,73.7
2023-05-08T01:53:33.133Z,73.6
2023-05-08T01:54:33.106Z,73.6
2023-05-08T01:55:33.247Z,73.7
2023-05-08T01:56:33.096Z,73.7
2023-05-08T01:57:33.116Z,73.7
2023-05-08T01:58:33.138Z,73.7
2023-05-08T01:59:33.145Z,73.7
2023-05-08T02:00:33.133Z,73.8
2023-05-08T02:01:33.106Z,73.7
2023-05-08T02:02:33.170Z,73.8
2023-05-08T02:03:33.203Z,73.7
2023-05-08T02:04:33.157Z,73.7
2023-05-08T02:05:33.070Z,73.7
2023-05-08T02:06:33.267Z,73.6
2023-05-08T02:07:33.146Z,73.6
2023-05-08T02:08:33.058Z,73.5
2023-05-08T02:09:33.111Z,73.4
2023-05-08T02:10:33.123Z,73.4
2023-05-08T02:11:33.066Z,73.5
2023-05-08T02:12:33.097Z,73.5
2023-05-08T02:13:33.067Z,73.4
2023-05-08T02:14:33.093Z,73.3
2023-05-08T02:15:33.107Z,73.3
2023-05-08T02:16:33.125Z,73.2
2023-05-08T02:17:33.262Z,73.3
2023-05-08T02:18:33.078Z,73.3
2023-05-08T02:19:33.088Z,73.4
2023-05-08T02:20:33.054Z,73.3
2023-05-08T02:21:33.034Z,73.2
2023-05-08T02:22:33.118Z,73.2
2023-05-08T02:23:33.045Z,73.2
2023-05-08T02:24:33.066Z,73.2
2023-05-08T02:25:33.047Z,73.3
2023-05-08T02:26:33.063Z,73.0
2023-05-08T02:27:33.082Z,73.0
2023-05-08T02:28:33.254Z,73.1
2023-05-08T02:29:33.039Z,73.1
2023-05-08T02:30:33.054Z,73.2
2023-05-08T02:31:33.080Z,73.1
2023-05-08T02:32:33.102Z,73.2
2023-05-08T02:33:33.015Z,73.2
2023-05-08T02:34:33.021Z,73.3
2023-05-08T02:35:33.149Z,73.3
2023-05-08T02:36:33.020Z,73.2
2023-05-08T02:37:33.071Z,73.3
2023-05-08T02:38:33.000Z,73.3
2023-05-08T02:39:33.167Z,73.3
2023-05-08T02:40:32.999Z,73.3
2023-05-08T02:41:32.988Z,73.3
2023-05-08T02:42:33.007Z,73.3
2023-05-08T02:43:33.061Z,73.3
2023-05-08T02:44:33.010Z,73.2
2023-05-08T02:45:32.999Z,73.2
2023-05-08T02:46:33.132Z,73.1
2023-05-08T02:47:33.020Z,73.1
2023-05-08T02:48:33.090Z,73.1
2023-05-08T02:49:33.001Z,73.2
2023-05-08T02:50:33.189Z,73.2
2023-05-08T02:51:32.995Z,73.2
2023-05-08T02:52:32.984Z,73.2
2023-05-08T02:53:33.031Z,73.2
2023-05-08T02:54:33.026Z,73.2
2023-05-08T02:55:32.989Z,73.2
2023-05-08T02:56:33.075Z,73.2
2023-05-08T02:57:33.277Z,73.2
2023-05-08T02:58:33.019Z,73.2
2023-05-08T02:59:32.984Z,73.1
2023-05-08T03:00:33.113Z,73.2
2023-05-08T03:01:33.139Z,73.2
2023-05-08T03:02:33.043Z,73.2
2023-05-08T03:03:33.090Z,73.2
2023-05-08T03:04:32.998Z,73.1
2023-05-08T03:05:33.008Z,73.2
2023-05-08T03:06:33.010Z,73.2
2023-05-08T03:07:32.939Z,73.2
2023-05-08T03:08:32.980Z,73.2
2023-05-08T03:09:32.970Z,73.2
2023-05-08T03:10:32.986Z,73.2
2023-05-08T03:11:32.989Z,73.1
2023-05-08T03:12:33.080Z,73.1
2023-05-08T03:13:32.953Z,73.1
2023-05-08T03:14:32.966Z,73.1
2023-05-08T03:15:33.005Z,73.2
2023-05-08T03:16:32.990Z,73.2
2023-05-08T03:17:33.026Z,73.1
2023-05-08T03:18:32.968Z,73.1
2023-05-08T03:19:33.032Z,73.1
2023-05-08T03:20:32.961Z,73.1
2023-05-08T03:21:33.018Z,73.2
2023-05-08T03:22:33.068Z,73.2
2023-05-08T03:23:33.018Z,73.2
2023-05-08T03:24:32.948Z,73.2
2023-05-08T03:25:32.973Z,73.2
2023-05-08T03:26:32.986Z,73.2
2023-05-08T03:27:32.988Z,73.2
2023-05-08T03:28:32.950Z,73.2
2023-05-08T03:29:33.058Z,73.2
2023-05-08T03:30:32.953Z,73.2
2023-05-08T03:31:33.018Z,73.2
2023-05-08T03:32:32.946Z,73.2
2023-05-08T03:33:32.975Z,73.2
2023-05-08T03:34:33.176Z,73.2
2023-05-08T03:35:32.913Z,73.2
2023-05-08T03:36:32.958Z,73.2
2023-05-08T03:37:32.985Z,73.2
2023-05-08T03:38:32.977Z,73.2
2023-05-08T03:39:32.902Z,73.3
2023-05-08T03:40:32.916Z,73.2
2023-05-08T03:41:32.902Z,73.2
2023-05-08T03:42:32.995Z,73.2
2023-05-08T03:43:32.935Z,73.2
2023-05-08T03:44:32.944Z,73.2
2023-05-08T03:45:33.043Z,73.2
2023-05-08T03:46:32.949Z,73.2
2023-05-08T03:47:32.997Z,73.2
2023-05-08T03:48:32.907Z,73.3
2023-05-08T03:49:32.995Z,73.3
2023-05-08T03:50:33.063Z,73.3
2023-05-08T03:51:32.914Z,73.3
2023-05-08T03:52:32.967Z,73.3
2023-05-08T03:53:32.927Z,73.3
2023-05-08T03:54:32.929Z,73.4
2023-05-08T03:55:32.883Z,73.4
2023-05-08T03:56:33.085Z,73.4
2023-05-08T03:57:32.922Z,73.4
2023-05-08T03:58:32.920Z,73.4
2023-05-08T03:59:32.880Z,73.4
2023-05-08T04:00:32.873Z,73.5
2023-05-08T04:01:32.876Z,73.4
2023-05-08T04:02:33.060Z,73.5
2023-05-08T04:03:33.006Z,73.4
2023-05-08T04:04:32.947Z,73.5
2023-05-08T04:05:32.874Z,73.4
2023-05-08T04:06:41.928Z,73.5
2023-05-08T04:07:33.078Z,73.5
2023-05-08T04:08:32.888Z,73.5
2023-05-08T04:09:32.862Z,73.4
2023-05-08T04:10:32.851Z,73.4
2023-05-08T04:11:32.817Z,73.4
2023-05-08T04:12:32.907Z,73.4
2023-05-08T04:13:32.910Z,73.4
2023-05-08T04:14:32.878Z,73.4
2023-05-08T04:15:32.830Z,73.4
2023-05-08T04:16:32.905Z,73.4
2023-05-08T04:17:32.923Z,73.4
2023-05-08T04:18:32.984Z,73.4
2023-05-08T04:19:32.899Z,73.4
2023-05-08T04:20:32.868Z,73.4
2023-05-08T04:21:32.836Z,73.4
2023-05-08T04:22:32.820Z,73.3
2023-05-08T04:23:32.850Z,73.4
2023-05-08T04:24:32.834Z,73.4
2023-05-08T04:25:32.843Z,73.4
2023-05-08T04:26:32.862Z,73.4
2023-05-08T04:27:32.853Z,73.4
2023-05-08T04:28:32.871Z,73.4
2023-05-08T04:29:32.817Z,73.3
2023-05-08T04:30:32.864Z,73.3
2023-05-08T04:31:32.846Z,73.4
2023-05-08T04:32:32.863Z,73.4
2023-05-08T04:33:32.786Z,73.3
2023-05-08T04:34:32.813Z,73.3
2023-05-08T04:35:32.815Z,73.3
2023-05-08T04:36:32.821Z,73.3
2023-05-08T04:37:32.848Z,73.3
2023-05-08T04:38:32.822Z,73.2
2023-05-08T04:39:32.794Z,73.2
2023-05-08T04:40:33.033Z,73.2
2023-05-08T04:41:32.902Z,73.2
2023-05-08T04:42:32.824Z,73.2
2023-05-08T04:43:32.791Z,73.2
2023-05-08T04:44:32.793Z,73.1
2023-05-08T04:45:32.814Z,73.1
2023-05-08T04:46:32.861Z,73.1
2023-05-08T04:47:32.804Z,73.2
2023-05-08T04:48:32.826Z,73.2
2023-05-08T04:49:32.794Z,73.2
2023-05-08T04:50:32.779Z,73.2
2023-05-08T04:51:32.990Z,73.2
2023-05-08T04:52:32.958Z,73.2
2023-05-08T04:53:32.778Z,73.2
2023-05-08T04:54:32.768Z,73.2
2023-05-08T04:55:32.770Z,73.1
2023-05-08T04:56:32.845Z,73.1
2023-05-08T04:57:32.746Z,73.1
2023-05-08T04:58:32.874Z,73.1
2023-05-08T04:59:32.873Z,73.0
2023-05-08T05:00:32.755Z,73.0
2023-05-08T05:01:32.822Z,73.0
2023-05-08T05:02:32.822Z,73.0
2023-05-08T05:03:32.771Z,73.0
2023-05-08T05:04:32.821Z,73.0
2023-05-08T05:05:32.915Z,73.0
2023-05-08T05:06:32.791Z,73.0
2023-05-08T05:07:32.985Z,73.0
2023-05-08T05:08:32.757Z,73.0
2023-05-08T05:09:32.792Z,73.0
2023-05-08T05:10:32.754Z,73.0
2023-05-08T05:11:32.741Z,73.0
2023-05-08T05:12:32.779Z,73.0
2023-05-08T05:13:32.885Z,72.8
2023-05-08T05:14:32.767Z,72.8
2023-05-08T05:15:32.751Z,72.9
2023-05-08T05:16:32.808Z,72.9
2023-05-08T05:17:32.783Z,72.9
2023-05-08T05:18:32.717Z,72.9
2023-05-08T05:19:32.767Z,72.9
2023-05-08T05:20:32.743Z,72.9
2023-05-08T05:21:32.789Z,72.9
2023-05-08T05:22:32.734Z,72.9
2023-05-08T05:23:32.724Z,72.8
2023-05-08T05:24:32.890Z,72.8
2023-05-08T05:25:32.752Z,72.8
2023-05-08T05:26:33.453Z,72.8
2023-05-08T05:27:32.808Z,72.8
2023-05-08T05:28:32.726Z,72.9
2023-05-08T05:29:32.747Z,72.9
2023-05-08T05:30:32.713Z,72.7
2023-05-08T05:31:32.819Z,72.7
2023-05-08T05:32:32.813Z,72.7
2023-05-08T05:33:32.680Z,72.6
2023-05-08T05:34:32.751Z,72.7
2023-05-08T05:35:32.880Z,72.7
2023-05-08T05:36:32.722Z,72.7
2023-05-08T05:37:32.759Z,72.7
2023-05-08T05:38:32.677Z,72.8
2023-05-08T05:39:32.743Z,72.8
2023-05-08T05:40:32.701Z,72.7
2023-05-08T05:41:32.728Z,72.8
2023-05-08T05:42:32.696Z,72.8
2023-05-08T05:43:32.753Z,72.8
2023-05-08T05:44:32.725Z,72.8
2023-05-08T05:45:33.692Z,72.9
2023-05-08T05:46:32.945Z,72.9
2023-05-08T05:47:32.823Z,72.8
2023-05-08T05:48:32.689Z,72.9
2023-05-08T05:49:32.806Z,73.0
2023-05-08T05:50:32.743Z,72.9
2023-05-08T05:51:32.640Z,72.9
2023-05-08T05:52:32.671Z,73.0
2023-05-08T05:53:32.668Z,73.0
2023-05-08T05:54:32.721Z,72.9
2023-05-08T05:55:32.752Z,72.9
2023-05-08T05:56:32.646Z,72.9
2023-05-08T05:57:33.016Z,73.0
2023-05-08T05:58:32.697Z,73.0
2023-05-08T05:59:32.735Z,73.0
2023-05-08T06:00:32.675Z,73.0
2023-05-08T06:01:32.696Z,73.0
2023-05-08T06:02:32.763Z,72.9
2023-05-08T06:03:32.782Z,73.0
2023-05-08T06:04:32.702Z,73.0
2023-05-08T06:05:32.701Z,72.9
2023-05-08T06:06:32.659Z,72.9
2023-05-08T06:07:32.658Z,73.0
2023-05-08T06:08:32.766Z,72.9
2023-05-08T06:09:32.657Z,72.9
2023-05-08T06:10:32.651Z,72.9
2023-05-08T06:11:32.680Z,72.8
2023-05-08T06:12:32.679Z,72.8
2023-05-08T06:13:32.840Z,72.8
2023-05-08T06:14:32.682Z,72.8
2023-05-08T06:15:32.641Z,72.7
2023-05-08T06:16:32.668Z,72.7
2023-05-08T06:17:32.664Z,72.7
2023-05-08T06:18:32.682Z,72.8
2023-05-08T06:19:32.767Z,72.8
2023-05-08T06:20:32.644Z,72.8
2023-05-08T06:21:32.614Z,72.9
2023-05-08T06:22:32.653Z,72.9
2023-05-08T06:23:32.637Z,72.9
2023-05-08T06:24:32.616Z,72.9
2023-05-08T06:25:32.629Z,72.9
2023-05-08T06:26:32.633Z,72.9
2023-05-08T06:27:32.588Z,72.9
2023-05-08T06:28:32.590Z,72.9
2023-05-08T06:29:32.603Z,72.8
2023-05-08T06:30:32.815Z,72.8
2023-05-08T06:31:32.652Z,72.7
2023-05-08T06:32:32.626Z,72.6
2023-05-08T06:33:32.618Z,72.6
2023-05-08T06:34:32.630Z,72.7
2023-05-08T06:35:32.615Z,72.6
2023-05-08T06:36:32.668Z,72.6
2023-05-08T06:37:32.619Z,72.7
2023-05-08T06:38:32.610Z,72.6
2023-05-08T06:39:32.640Z,72.6
2023-05-08T06:40:32.614Z,72.7
2023-05-08T06:41:32.698Z,72.8
2023-05-08T06:42:32.623Z,72.8
2023-05-08T06:43:32.594Z,72.8
2023-05-08T06:44:32.602Z,72.8
2023-05-08T06:45:32.612Z,72.7
2023-05-08T06:46:32.671Z,72.7
2023-05-08T06:47:32.724Z,72.6
2023-05-08T06:48:32.561Z,72.5
2023-05-08T06:49:32.653Z,72.5
2023-05-08T06:50:32.617Z,72.3
2023-05-08T06:51:32.608Z,72.4
2023-05-08T06:52:32.983Z,72.4
2023-05-08T06:53:32.733Z,72.3
2023-05-08T06:54:32.600Z,72.2
2023-05-08T06:55:33.173Z,72.2
2023-05-08T06:56:32.612Z,72.3
2023-05-08T06:57:32.959Z,72.2
2023-05-08T06:58:32.857Z,72.2
2023-05-08T06:59:32.572Z,72.3
2023-05-08T07:00:32.595Z,72.4
2023-05-08T07:01:32.710Z,72.4
2023-05-08T07:02:32.806Z,72.3
2023-05-08T07:03:32.584Z,72.1
2023-05-08T07:04:32.652Z,72.1
2023-05-08T07:05:38.793Z,72.2
2023-05-08T07:06:32.535Z,72.0
2023-05-08T07:07:32.572Z,72.2
2023-05-08T07:08:32.605Z,72.2
2023-05-08T07:09:32.530Z,72.2
2023-05-08T07:10:32.614Z,72.2
2023-05-08T07:11:33.204Z,72.2
2023-05-08T07:12:32.530Z,72.2
2023-05-08T07:13:32.654Z,72.2
2023-05-08T07:14:32.728Z,71.7
2023-05-08T07:15:32.651Z,72.1
2023-05-08T07:16:32.642Z,71.5
2023-05-08T07:17:32.603Z,71.5
2023-05-08T07:18:32.543Z,71.7
2023-05-08T07:19:32.552Z,71.9
2023-05-08T07:20:32.568Z,72.0
2023-05-08T07:21:32.555Z,72.0
2023-05-08T07:22:32.734Z,71.8
2023-05-08T07:23:32.500Z,71.5
2023-05-08T07:24:32.488Z,71.1
2023-05-08T07:25:32.842Z,70.9
2023-05-08T07:26:32.746Z,70.7
2023-05-08T07:27:32.582Z,70.0
2023-05-08T07:28:32.517Z,70.7
2023-05-08T07:29:32.503Z,71.0
2023-05-08T07:30:32.496Z,71.0
2023-05-08T07:31:32.593Z,70.9
2023-05-08T07:32:32.566Z,71.4
2023-05-08T07:33:32.502Z,71.5
2023-05-08T07:34:32.494Z,71.6
2023-05-08T07:35:32.540Z,71.6
2023-05-08T07:36:32.515Z,71.6
2023-05-08T07:37:32.591Z,71.6
2023-05-08T07:38:32.525Z,70.6
2023-05-08T07:39:32.496Z,70.0
2023-05-08T07:40:32.541Z,69.7
2023-05-08T07:41:32.623Z,70.2
2023-05-08T07:42:32.509Z,69.9
2023-05-08T07:43:32.480Z,70.0
2023-05-08T07:44:37.495Z,69.5
2023-05-08T07:45:32.574Z,69.4
2023-05-08T07:46:32.583Z,68.3
2023-05-08T07:47:32.478Z,69.4
2023-05-08T07:48:32.467Z,69.3
2023-05-08T07:49:32.506Z,69.1
2023-05-08T07:50:32.620Z,68.9
2023-05-08T07:51:32.497Z,69.1
2023-05-08T07:52:32.440Z,68.5
2023-05-08T07:53:32.479Z,69.2
2023-05-08T07:54:32.584Z,68.3
2023-05-08T07:55:32.560Z,68.5
2023-05-08T07:56:32.450Z,68.6
2023-05-08T07:57:32.425Z,68.5
2023-05-08T07:58:32.554Z,69.3
2023-05-08T07:59:32.528Z,69.7
2023-05-08T08:00:32.438Z,70.0
2023-05-08T08:01:32.454Z,70.2
2023-05-08T08:02:32.570Z,69.4
2023-05-08T08:03:32.559Z,69.9
2023-05-08T08:04:32.617Z,68.1
2023-05-08T08:05:32.510Z,69.0
2023-05-08T08:06:32.439Z,69.1
2023-05-08T08:07:32.579Z,68.1
2023-05-08T08:08:32.407Z,68.6
2023-05-08T08:09:32.440Z,68.5
2023-05-08T08:10:32.564Z,69.1
2023-05-08T08:11:32.450Z,69.3
2023-05-08T08:12:32.451Z,69.4
2023-05-08T08:13:32.513Z,69.5
2023-05-08T08:14:32.446Z,69.5
2023-05-08T08:15:32.506Z,69.4
2023-05-08T08:16:32.460Z,69.3
2023-05-08T08:17:32.522Z,69.5
2023-05-08T08:18:32.432Z,69.5
2023-05-08T08:19:32.499Z,69.7
2023-05-08T08:20:32.803Z,69.7
2023-05-08T08:21:32.392Z,69.7
2023-05-08T08:22:32.439Z,67.2
2023-05-08T08:23:32.463Z,68.8
2023-05-08T08:24:32.500Z,68.8
2023-05-08T08:25:32.456Z,68.5
2023-05-08T08:26:32.399Z,68.3
2023-05-08T08:27:32.451Z,68.0
2023-05-08T08:28:32.399Z,68.4
2023-05-08T08:29:32.417Z,66.4
2023-05-08T08:30:33.596Z,67.6
2023-05-08T08:31:32.662Z,67.6
2023-05-08T08:32:32.466Z,67.6
2023-05-08T08:33:32.422Z,68.0
2023-05-08T08:34:32.416Z,67.1
2023-05-08T08:35:32.534Z,67.4
2023-05-08T08:36:32.480Z,66.9
2023-05-08T08:37:32.402Z,67.5
2023-05-08T08:38:32.454Z,66.6
2023-05-08T08:39:32.421Z,66.9
2023-05-08T08:40:32.560Z,67.1
2023-05-08T08:41:32.397Z,67.3
2023-05-08T08:42:32.360Z,67.9
2023-05-08T08:43:32.364Z,66.2
2023-05-08T08:44:32.407Z,66.6
2023-05-08T08:45:32.472Z,66.3
2023-05-08T08:46:32.419Z,67.1
2023-05-08T08:47:32.467Z,66.9
2023-05-08T08:48:32.348Z,66.9
2023-05-08T08:49:32.399Z,67.0
2023-05-08T08:50:32.476Z,67.3
2023-05-08T08:51:32.378Z,67.5
2023-05-08T08:52:32.501Z,67.6
2023-05-08T08:53:32.401Z,67.8
2023-05-08T08:54:32.358Z,67.7
2023-05-08T08:55:32.438Z,67.2
2023-05-08T08:56:32.388Z,66.9
2023-05-08T08:57:32.344Z,67.2
2023-05-08T08:58:32.466Z,66.6
2023-05-08T08:59:32.358Z,67.2
2023-05-08T09:00:32.428Z,65.5
2023-05-08T09:01:32.367Z,66.5
2023-05-08T09:02:32.495Z,67.0
2023-05-08T09:03:32.627Z,67.2
2023-05-08T09:04:32.414Z,67.1
2023-05-08T09:05:32.435Z,67.3
2023-05-08T09:06:32.352Z,66.8
2023-05-08T09:07:32.442Z,67.1
2023-05-08T09:08:32.432Z,67.4
2023-05-08T09:09:32.369Z,67.5
2023-05-08T09:10:32.397Z,67.4
2023-05-08T09:11:32.312Z,67.4
2023-05-08T09:12:32.375Z,67.2
2023-05-08T09:13:32.784Z,67.4
2023-05-08T09:14:32.371Z,67.3
2023-05-08T09:15:32.402Z,67.2
2023-05-08T09:16:32.539Z,67.4
2023-05-08T09:17:32.383Z,67.1
2023-05-08T09:18:32.461Z,67.0
2023-05-08T09:19:32.668Z,67.2
2023-05-08T09:20:32.416Z,67.2
2023-05-08T09:21:32.339Z,66.8
2023-05-08T09:22:32.320Z,66.8
2023-05-08T09:23:32.296Z,66.5
2023-05-08T09:24:32.444Z,63.8
2023-05-08T09:25:32.412Z,65.2
2023-05-08T09:26:32.363Z,63.4
2023-05-08T09:27:32.310Z,64.4
2023-05-08T09:28:32.310Z,64.3
2023-05-08T09:29:32.325Z,63.9
2023-05-08T09:30:32.341Z,64.7
2023-05-08T09:31:32.877Z,65.4
2023-05-08T09:32:32.368Z,65.6
2023-05-08T09:33:32.400Z,65.4
2023-05-08T09:34:32.323Z,65.2
2023-05-08T09:35:32.304Z,64.8
2023-05-08T09:36:32.307Z,65.2
2023-05-08T09:37:32.355Z,65.2
2023-05-08T09:38:32.322Z,64.5
2023-05-08T09:39:32.307Z,64.6
2023-05-08T09:40:32.330Z,64.5
2023-05-08T09:41:32.329Z,63.4
2023-05-08T09:42:32.368Z,64.8
2023-05-08T09:43:32.357Z,64.9
2023-05-08T09:44:32.328Z,64.3
2023-05-08T09:45:32.481Z,62.6
2023-05-08T09:46:32.471Z,62.7
2023-05-08T09:47:32.408Z,62.2
2023-05-08T09:48:32.273Z,62.4
2023-05-08T09:49:32.409Z,63.3
2023-05-08T09:50:32.264Z,63.6
2023-05-08T09:51:32.300Z,62.9
2023-05-08T09:52:32.340Z,62.4
2023-05-08T09:53:32.261Z,62.8
2023-05-08T09:54:32.399Z,63.1
2023-05-08T09:55:32.305Z,63.6
2023-05-08T09:56:32.250Z,63.8
2023-05-08T09:57:35.132Z,62.5
2023-05-08T09:58:32.292Z,62.8
2023-05-08T09:59:34.264Z,63.0
2023-05-08T10:00:33.358Z,62.5
2023-05-08T10:01:32.308Z,62.4
2023-05-08T10:02:32.296Z,63.0
2023-05-08T10:03:32.233Z,61.9
2023-05-08T10:04:32.269Z,63.1
2023-05-08T10:05:32.849Z,63.4
2023-05-08T10:06:32.246Z,62.7
2023-05-08T10:07:32.462Z,62.3
2023-05-08T10:08:32.373Z,62.2
2023-05-08T10:09:43.005Z,61.3
2023-05-08T10:10:32.343Z,61.7
2023-05-08T10:11:32.234Z,62.3
2023-05-08T10:12:32.282Z,62.8
2023-05-08T10:13:32.283Z,62.6
2023-05-08T10:14:32.221Z,60.8
2023-05-08T10:15:32.285Z,61.8
2023-05-08T10:16:32.462Z,62.4
2023-05-08T10:17:32.544Z,62.5
2023-05-08T10:18:32.403Z,62.5
2023-05-08T10:19:32.667Z,62.8
2023-05-08T10:20:32.253Z,63.0
2023-05-08T10:21:32.237Z,63.2
2023-05-08T10:22:32.283Z,63.5
2023-05-08T10:23:32.244Z,63.5
2023-05-08T10:24:32.211Z,62.3
2023-05-08T10:25:32.242Z,63.1
2023-05-08T10:26:32.301Z,63.2
2023-05-08T10:27:32.289Z,63.1
2023-05-08T10:28:32.274Z,63.0
2023-05-08T10:29:32.307Z,62.8
2023-05-08T10:30:32.358Z,62.9
2023-05-08T10:31:32.282Z,62.6
2023-05-08T10:32:32.279Z,62.0
2023-05-08T10:33:32.256Z,62.2
2023-05-08T10:34:32.237Z,62.5
2023-05-08T10:35:32.197Z,62.6
2023-05-08T10:36:32.198Z,62.5
2023-05-08T10:37:32.184Z,61.4
2023-05-08T10:38:32.253Z,61.0
2023-05-08T10:39:32.231Z,61.4
2023-05-08T10:40:32.267Z,61.7
2023-05-08T10:41:32.382Z,61.9
2023-05-08T10:42:32.279Z,61.6
2023-05-08T10:43:32.251Z,61.2
2023-05-08T10:44:32.239Z,61.1
2023-05-08T10:45:32.218Z,61.1
2023-05-08T10:46:32.221Z,60.6
2023-05-08T10:47:32.253Z,60.7
2023-05-08T10:48:32.194Z,59.9
2023-05-08T10:49:32.203Z,60.8
2023-05-08T10:50:32.156Z,59.6
2023-05-08T10:51:32.160Z,58.1
2023-05-08T10:52:32.366Z,59.8
2023-05-08T10:53:32.243Z,60.1
2023-05-08T10:54:43.494Z,59.4
2023-05-08T10:55:32.213Z,60.1
2023-05-08T10:56:32.165Z,60.7
2023-05-08T10:57:32.229Z,59.8
2023-05-08T10:58:32.232Z,59.5
2023-05-08T10:59:32.171Z,59.7
2023-05-08T11:00:32.156Z,60.1
2023-05-08T11:01:32.324Z,60.3
2023-05-08T11:02:32.324Z,60.2
2023-05-08T11:03:33.310Z,60.4
2023-05-08T11:04:32.321Z,60.7
2023-05-08T11:05:32.197Z,60.4
2023-05-08T11:06:32.175Z,60.4
2023-05-08T11:07:32.277Z,60.6
2023-05-08T11:08:32.196Z,59.9
2023-05-08T11:09:32.185Z,60.4
2023-05-08T11:10:32.165Z,60.2
2023-05-08T11:11:32.190Z,59.0
2023-05-08T11:12:32.176Z,58.7
2023-05-08T11:13:32.537Z,58.6
2023-05-08T11:14:32.301Z,59.7
2023-05-08T11:15:32.123Z,59.6
2023-05-08T11:16:32.210Z,59.5
2023-05-08T11:17:32.133Z,58.8
2023-05-08T11:18:45.714Z,59.9
2023-05-08T11:19:32.149Z,60.1
2023-05-08T11:20:32.324Z,60.0
2023-05-08T11:21:32.127Z,60.3
2023-05-08T11:22:32.137Z,60.1
2023-05-08T11:23:32.135Z,59.2
2023-05-08T11:24:32.133Z,59.7
2023-05-08T11:25:32.282Z,59.7
2023-05-08T11:26:35.175Z,60.0
2023-05-08T11:27:32.115Z,59.7
2023-05-08T11:28:33.304Z,59.7
2023-05-08T11:29:32.126Z,59.8
2023-05-08T11:30:32.133Z,59.6
2023-05-08T11:31:32.174Z,59.7
2023-05-08T11:32:32.159Z,59.8
2023-05-08T11:33:32.143Z,59.8
2023-05-08T11:34:32.258Z,60.1
2023-05-08T11:35:32.084Z,60.2
2023-05-08T11:36:32.116Z,60.1
2023-05-08T11:37:32.129Z,59.8
2023-05-08T11:38:32.093Z,59.9
2023-05-08T11:39:32.174Z,59.9
2023-05-08T11:40:32.129Z,59.6
2023-05-08T11:41:32.079Z,59.3
2023-05-08T11:42:32.168Z,59.3
2023-05-08T11:43:32.117Z,59.5
2023-05-08T11:44:32.112Z,59.4
2023-05-08T11:45:32.128Z,59.4
2023-05-08T11:46:32.161Z,59.3
2023-05-08T11:47:32.328Z,58.9
2023-05-08T11:48:32.089Z,58.9
2023-05-08T11:49:32.966Z,59.2
2023-05-08T11:50:32.129Z,59.3
2023-05-08T11:51:32.142Z,59.0
2023-05-08T11:52:32.072Z,59.0
2023-05-08T11:53:32.110Z,59.1
2023-05-08T11:54:32.145Z,59.2
2023-05-08T11:55:32.117Z,59.0
2023-05-08T11:56:32.107Z,58.4
2023-05-08T11:57:32.107Z,58.7
2023-05-08T11:58:32.046Z,58.7
2023-05-08T11:59:32.122Z,58.6
2023-05-08T12:00:32.364Z,58.6
2023-05-08T12:01:32.149Z,58.8
2023-05-08T12:02:33.978Z,58.9
2023-05-08T12:03:32.180Z,59.1
2023-05-08T12:04:32.134Z,59.1
2023-05-08T12:05:32.148Z,59.0
2023-05-08T12:06:32.101Z,59.0
2023-05-08T12:07:32.093Z,59.2
2023-05-08T12:08:32.091Z,59.1
2023-05-08T12:09:32.084Z,58.9
2023-05-08T12:10:32.038Z,58.7
2023-05-08T12:11:32.039Z,58.7
2023-05-08T12:12:32.033Z,58.1
2023-05-08T12:13:32.119Z,57.9
2023-05-08T12:14:32.035Z,57.7
2023-05-08T12:15:32.088Z,58.3
2023-05-08T12:16:32.107Z,57.7
2023-05-08T12:17:32.065Z,58.3
2023-05-08T12:18:32.038Z,58.4
2023-05-08T12:19:32.050Z,58.5
2023-05-08T12:20:33.817Z,58.6
2023-05-08T12:21:32.033Z,58.5
2023-05-08T12:22:32.233Z,58.4
2023-05-08T12:23:32.033Z,57.3
2023-05-08T12:24:32.196Z,55.4
2023-05-08T12:25:32.058Z,56.4
2023-05-08T12:26:32.025Z,56.7
2023-05-08T12:27:32.027Z,57.3
2023-05-08T12:28:32.056Z,55.7
2023-05-08T12:29:32.056Z,56.3
2023-05-08T12:30:32.125Z,56.8
2023-05-08T12:31:32.139Z,54.3
2023-05-08T12:32:32.037Z,55.6
2023-05-08T12:33:32.188Z,55.4
2023-05-08T12:34:32.064Z,56.2
2023-05-08T12:35:32.023Z,56.0
2023-05-08T12:36:32.051Z,55.0
2023-05-08T12:37:32.018Z,55.8
2023-05-08T12:38:32.032Z,54.9
2023-05-08T12:39:32.042Z,54.7
2023-05-08T12:40:31.946Z,54.9
2023-05-08T12:41:31.994Z,54.8
2023-05-08T12:42:32.040Z,55.4
2023-05-08T12:43:32.052Z,55.7
2023-05-08T12:44:32.226Z,56.1
2023-05-08T12:45:31.992Z,56.0
2023-05-08T12:46:32.099Z,56.0
2023-05-08T12:47:32.008Z,55.8
2023-05-08T12:48:32.407Z,56.0
2023-05-08T12:49:32.093Z,54.5
2023-05-08T12:50:32.123Z,55.3
2023-05-08T12:51:32.039Z,55.3
2023-05-08T12:52:32.001Z,55.9
2023-05-08T12:53:32.179Z,56.2
2023-05-08T12:54:32.002Z,56.2
2023-05-08T12:55:32.142Z,56.2
2023-05-08T12:56:31.984Z,56.3
2023-05-08T12:57:32.096Z,56.2
2023-05-08T12:58:32.035Z,55.6
2023-05-08T12:59:31.956Z,55.0
2023-05-08T13:00:32.138Z,53.3
2023-05-08T13:01:32.022Z,53.5
2023-05-08T13:02:32.114Z,54.6
2023-05-08T13:03:32.005Z,54.2
2023-05-08T13:04:32.107Z,54.5
2023-05-08T13:05:32.030Z,54.8
2023-05-08T13:06:32.126Z,54.9
2023-05-08T13:07:31.973Z,54.5
2023-05-08T13:08:32.036Z,54.8
2023-05-08T13:09:31.961Z,55.2
2023-05-08T13:10:32.144Z,55.4
2023-05-08T13:11:31.958Z,55.3
2023-05-08T13:12:31.995Z,53.8
2023-05-08T13:13:31.970Z,55.0
2023-05-08T13:14:31.988Z,55.1
2023-05-08T13:15:32.083Z,52.9
2023-05-08T13:16:32.063Z,54.1
2023-05-08T13:17:32.136Z,54.7
2023-05-08T13:18:31.958Z,54.6
2023-05-08T13:19:31.982Z,54.0